Terminal Aerodrome Forecast
Issued by NWS

Home | Current Version | Previous Version | Text Only | Print | Product List | Glossary On
Versions: 1 2 3 4 5 6 7 8 9 10 11 12 13 14 15 16 17 18 19
047
FTUS43 KBIS 122331
TAFJMS
TAF
KJMS 122331Z 1300/1324 35011KT P6SM SCT250
     FM130200 11004KT P6SM SCT250
     FM131400 15012KT P6SM BKN090
     FM131800 15017KT 5SM -SN OVC025
     FM132100 15017KT 3SM -SN BR OVC010=

USA.gov is the U.S. government's official web portal to all federal, state and local government web resources and services.